Profil Rumah Sakit

RSU.A.YANI METRO

Ketersediaan Tempat Tidur

No Kelas Rawat Nama Ruang Kapasitas Tersedia Tglupdate
Umum Laki-laki Perempuan
1 NON R.NEONATUS 6 0 0 0 2017-11-11 08:12:00
2 NON RPDA KEMO 11 3 0 0 2017-11-11 08:11:19
3 VIP PAVILIUN 12 0 0 0 2017-11-11 08:12:08
4 KELAS I R.BEDAH I 2 0 0 0 2017-11-11 08:12:19
5 KELAS I R. SARAF 6 0 0 0 2017-11-11 08:12:35
6 KELAS I RPDC 4 0 0 0 2017-11-11 08:13:01
7 KELAS I RPDA 6 0 0 0 2017-11-11 08:13:14
8 KELAS I R.ANAK I 8 1 0 0 2017-11-11 08:14:18
9 KELAS I BERSALIN I 2 0 0 0 2017-11-11 08:14:11
10 KELAS I RPDB I 7 0 0 0 2017-11-11 08:13:23
11 KELAS II R.ANAK II 6 3 0 0 2017-11-11 08:14:57
12 KELAS II BERSALIN II 2 0 0 0 2017-11-11 08:15:09
13 KELAS II RPDA II 6 1 0 0 2017-11-11 08:15:43
14 KELAS II RPDB II 6 0 0 0 2017-11-11 08:16:00
15 KELAS II R.PARU NON TB 3 3 0 0 2017-11-11 08:16:13
16 KELAS II R.BEDAH II 5 1 0 0 2017-11-11 08:15:26
17 KELAS II R.SARAF II 6 4 0 0 2017-11-11 08:18:50
18 KELAS II RPDC II 12 2 0 0 2017-11-11 08:14:47
19 KELAS III R.BEDAH III 38 27 0 0 2017-11-11 08:16:52
20 KELAS III R. SARAF III 9 7 0 0 2017-11-11 08:19:21
21 KELAS III RPDC III 6 0 0 0 2017-11-11 08:17:03
22 KELAS III R.PARU III TB 10 3 0 0 2017-11-11 08:18:39
23 KELAS III R.ANAK III 15 10 0 0 2017-11-11 08:19:35
24 KELAS III BERSALIN III 11 8 0 0 2017-11-11 08:19:00
25 KELAS III RPDA III 6 2 0 0 2017-11-11 08:19:10
26 KELAS III RPDB III 18 0 0 0 2017-11-11 08:19:58
27 KELAS III R.PARU III NON TB 10 3 0 0 2017-11-11 08:16:28
28 ICU ICU 8 0 0 0 2017-11-11 08:20:06
* Informasi dapat berubah pada saat peserta sampai di Rumah Sakit.
* Kolom tersedia adalah jumlah bed tersedia secara umum, baik laki-laki, perempuan, infeksi, non infeksi, dll.
* Kolom tersedia (laki-laki) adalah jumlah bed tersedia khusus untuk pasien laki-laki.
* Kolom tersedia (perempuan) adalah jumlah bed tersedia khusus untuk pasien perempuan.

Sarana

No Nama Sarana Nama Fasilitas Jumlah Total Jumlah Baik Jumlah Rusak Tgl Update
1 BRONCHOSCOPY BRONCHOSCOPY 1 1 0 2017-06-12 01:59:42
2 ENDOSCOPY ENDOSCOPY 1 1 0 2017-06-12 01:59:47
3 HEMODIALISA MESIN HEMODIALISA 11 11 0 2017-06-12 01:59:51
4 RADIOLOGI CT SCAN 1 1 0 2017-06-12 01:59:54
5 RADIOLOGI PANORAMIC 1 1 0 2017-06-12 01:59:57
6 RADIOLOGI USG 4 4 0 2017-06-12 02:00:01

Jadwal Poli

No Nama Poli Jadwal Poli Jam Pelayanan Dokter Tgl Update